Time;durP1;ratioP1;P1;durP2;ratioP2;P2;SDS_P1;SDS_P2;PMS_P1;PMS_P2;Temp;Humidity;BMP_temperature;BMP_pressure;BME280_temperature;BME280_humidity;BME280_pressure;Samples;Min_cycle;Max_cycle;Signal;HPM_P1;HPM_P2
2021/05/25 00:01:56;;;;;;;2.15;0.70;;;;;;;;;;5114240;28;20070;-66
2021/05/25 00:04:22;;;;;;;2.22;0.88;;;;;;;;;;5109210;28;20043;-66
2021/05/25 00:06:48;;;;;;;0.55;0.40;;;;;;;;;;5112510;28;20055;-66
2021/05/25 00:09:14;;;;;;;1.08;0.60;;;;;;;;;;5112010;28;20127;-66
2021/05/25 00:11:40;;;;;;;1.27;0.73;;;;;;;;;;5112329;28;20075;-66
2021/05/25 00:14:06;;;;;;;1.10;0.55;;;;;;;;;;5112220;28;20380;-69
2021/05/25 00:16:33;;;;;;;1.23;0.70;;;;;;;;;;5112636;28;20050;-67
2021/05/25 00:18:59;;;;;;;2.45;0.80;;;;;;;;;;5112047;28;20047;-66
2021/05/25 00:21:25;;;;;;;1.25;0.60;;;;;;;;;;5106916;28;20050;-66
2021/05/25 00:23:51;;;;;;;1.42;0.60;;;;;;;;;;5111926;28;20054;-66
2021/05/25 00:26:17;;;;;;;1.85;1.00;;;;;;;;;;5114264;28;20123;-66
2021/05/25 00:28:43;;;;;;;1.20;0.68;;;;;;;;;;5116567;28;20048;-67
2021/05/25 00:31:09;;;;;;;1.33;0.45;;;;;;;;;;5115189;28;20136;-66
2021/05/25 00:33:36;;;;;;;1.52;0.82;;;;;;;;;;5106345;28;20043;-66
2021/05/25 00:36:02;;;;;;;2.28;0.98;;;;;;;;;;5114781;28;20058;-66
2021/05/25 00:38:28;;;;;;;1.98;0.80;;;;;;;;;;5102080;28;20044;-66
2021/05/25 00:40:54;;;;;;;2.33;0.88;;;;;;;;;;5110522;28;20464;-68
2021/05/25 00:43:21;;;;;;;3.33;0.80;;;;;;;;;;5117064;28;20200;-66
2021/05/25 00:45:47;;;;;;;2.25;0.70;;;;;;;;;;5115409;28;20545;-67
2021/05/25 00:48:13;;;;;;;1.08;0.77;;;;;;;;;;5113097;28;20494;-66
2021/05/25 00:50:40;;;;;;;1.67;0.77;;;;;;;;;;5113617;28;20039;-66
2021/05/25 00:53:06;;;;;;;1.58;0.63;;;;;;;;;;5114652;28;20048;-66
2021/05/25 00:55:33;;;;;;;6.90;0.90;;;;;;;;;;5110917;28;20059;-66
2021/05/25 00:58:02;;;;;;;1.00;0.65;;;;;;;;;;5115290;28;20427;-66
2021/05/25 01:00:32;;;;;;;1.95;0.70;;;;;;;;;;5111698;28;20471;-67
2021/05/25 01:02:58;;;;;;;1.20;0.68;;;;;;;;;;5114218;28;20108;-67
2021/05/25 01:05:25;;;;;;;2.10;0.80;;;;;;;;;;5113482;28;20054;-67
2021/05/25 01:07:51;;;;;;;2.15;0.82;;;;;;;;;;5114844;28;20043;-67
2021/05/25 01:10:22;;;;;;;1.38;0.65;;;;;;;;;;5112588;28;20075;-67
2021/05/25 01:12:53;;;;;;;1.70;0.80;;;;;;;;;;5112839;28;20051;-67
2021/05/25 01:15:20;;;;;;;3.17;1.35;;;;;;;;;;5114723;27;20116;-67
2021/05/25 01:17:46;;;;;;;1.52;0.60;;;;;;;;;;5114911;28;20069;-67
2021/05/25 01:20:14;;;;;;;2.33;1.10;;;;;;;;;;5114687;28;20086;-67
2021/05/25 01:22:41;;;;;;;1.25;0.57;;;;;;;;;;5113833;28;20679;-67
2021/05/25 01:25:12;;;;;;;1.75;0.80;;;;;;;;;;5113296;28;20055;-67
2021/05/25 01:27:38;;;;;;;0.88;0.57;;;;;;;;;;5111186;28;20043;-67
2021/05/25 01:30:07;;;;;;;2.80;0.90;;;;;;;;;;5109041;28;20048;-67
2021/05/25 01:32:33;;;;;;;2.30;0.63;;;;;;;;;;5114208;28;20043;-67
2021/05/25 01:34:59;;;;;;;1.10;0.65;;;;;;;;;;5112652;28;20093;-67
2021/05/25 01:37:26;;;;;;;2.70;0.90;;;;;;;;;;5108253;28;20044;-67
2021/05/25 01:39:54;;;;;;;2.40;0.70;;;;;;;;;;5113916;28;20047;-67
2021/05/25 01:42:21;;;;;;;2.10;1.05;;;;;;;;;;5114891;28;20051;-67
2021/05/25 01:44:47;;;;;;;3.05;1.25;;;;;;;;;;5114494;28;20544;-67
2021/05/25 01:47:16;;;;;;;1.35;0.68;;;;;;;;;;5114794;28;20054;-67
2021/05/25 01:49:42;;;;;;;2.25;0.65;;;;;;;;;;5114938;28;20510;-67
2021/05/25 01:52:09;;;;;;;3.50;0.80;;;;;;;;;;5113546;28;20054;-67
2021/05/25 01:54:35;;;;;;;2.25;0.77;;;;;;;;;;5113353;28;20476;-67
2021/05/25 01:57:03;;;;;;;1.50;0.65;;;;;;;;;;5114018;28;20506;-67
2021/05/25 01:59:30;;;;;;;3.33;1.13;;;;;;;;;;5113573;28;20066;-67
2021/05/25 02:01:56;;;;;;;2.75;0.85;;;;;;;;;;5113141;28;20050;-67
2021/05/25 02:04:22;;;;;;;2.50;0.80;;;;;;;;;;5113416;28;20399;-67
2021/05/25 02:06:48;;;;;;;4.55;1.10;;;;;;;;;;5108376;28;20052;-67
2021/05/25 02:09:14;;;;;;;5.50;1.63;;;;;;;;;;5112936;28;20050;-67
2021/05/25 02:11:40;;;;;;;3.60;0.70;;;;;;;;;;5113390;28;20039;-67
2021/05/25 02:14:07;;;;;;;1.73;0.73;;;;;;;;;;5112761;28;20059;-67
2021/05/25 02:16:33;;;;;;;4.03;1.15;;;;;;;;;;5114579;28;20043;-67
2021/05/25 02:18:59;;;;;;;3.90;0.88;;;;;;;;;;5115043;28;20517;-67
2021/05/25 02:21:25;;;;;;;2.92;0.88;;;;;;;;;;5114760;28;20048;-67
2021/05/25 02:23:51;;;;;;;2.42;0.95;;;;;;;;;;5112526;28;20055;-67
2021/05/25 02:26:17;;;;;;;1.52;0.93;;;;;;;;;;5112002;28;20051;-67
2021/05/25 02:28:44;;;;;;;3.58;1.15;;;;;;;;;;5112284;28;20395;-67
2021/05/25 02:31:13;;;;;;;4.60;1.20;;;;;;;;;;5104281;28;20130;-67
2021/05/25 02:33:39;;;;;;;2.63;0.77;;;;;;;;;;5112121;28;20058;-67
2021/05/25 02:36:06;;;;;;;1.55;0.80;;;;;;;;;;5110044;28;20050;-67
2021/05/25 02:38:32;;;;;;;5.68;1.45;;;;;;;;;;5108123;28;20092;-67
2021/05/25 02:40:59;;;;;;;3.45;0.85;;;;;;;;;;5111291;28;20040;-67
2021/05/25 02:43:27;;;;;;;3.53;0.98;;;;;;;;;;5109909;27;20066;-67
2021/05/25 02:45:53;;;;;;;3.33;0.80;;;;;;;;;;5113585;27;20067;-67
2021/05/25 02:48:21;;;;;;;2.58;0.80;;;;;;;;;;5106986;28;20044;-67
2021/05/25 02:50:48;;;;;;;4.03;0.90;;;;;;;;;;5109512;28;20043;-67
2021/05/25 02:53:14;;;;;;;5.13;1.52;;;;;;;;;;5112545;28;20051;-67
2021/05/25 02:55:41;;;;;;;2.67;0.80;;;;;;;;;;5113257;27;20048;-67
2021/05/25 02:58:08;;;;;;;3.92;1.27;;;;;;;;;;5112588;28;20048;-67
2021/05/25 03:00:36;;;;;;;4.55;1.02;;;;;;;;;;5108764;28;20095;-67
2021/05/25 03:03:02;;;;;;;5.43;1.20;;;;;;;;;;5112305;28;20048;-67
2021/05/25 03:05:29;;;;;;;2.47;0.70;;;;;;;;;;5109629;28;20052;-67
2021/05/25 03:07:57;;;;;;;5.43;1.00;;;;;;;;;;5105156;28;20051;-67
2021/05/25 03:10:24;;;;;;;2.75;0.90;;;;;;;;;;5103861;28;20067;-67
2021/05/25 03:12:51;;;;;;;3.22;1.15;;;;;;;;;;5106130;28;20092;-67
2021/05/25 03:15:19;;;;;;;3.42;0.90;;;;;;;;;;5109735;28;20059;-67
2021/05/25 03:17:45;;;;;;;2.50;0.68;;;;;;;;;;5112528;28;20731;-67
2021/05/25 03:20:14;;;;;;;3.78;1.00;;;;;;;;;;5112170;28;20510;-67
2021/05/25 03:22:41;;;;;;;4.55;0.90;;;;;;;;;;5112590;28;20372;-67
2021/05/25 03:25:11;;;;;;;1.98;0.98;;;;;;;;;;5109934;28;20055;-67
2021/05/25 03:27:37;;;;;;;3.78;0.90;;;;;;;;;;5111863;28;20049;-67
2021/05/25 03:30:06;;;;;;;1.63;0.90;;;;;;;;;;5112129;28;20059;-68
2021/05/25 03:32:32;;;;;;;3.65;0.75;;;;;;;;;;5112600;28;20089;-67
2021/05/25 03:34:58;;;;;;;2.15;0.90;;;;;;;;;;5111639;28;20519;-67
2021/05/25 03:37:24;;;;;;;2.38;1.00;;;;;;;;;;5112406;28;20043;-67
2021/05/25 03:39:51;;;;;;;5.32;1.10;;;;;;;;;;5111600;28;20130;-67
2021/05/25 03:42:17;;;;;;;2.00;1.00;;;;;;;;;;5112298;28;20046;-67
2021/05/25 03:44:44;;;;;;;1.95;1.00;;;;;;;;;;5111363;28;20527;-67
2021/05/25 03:47:10;;;;;;;2.15;0.90;;;;;;;;;;5111972;28;20082;-67
2021/05/25 03:49:36;;;;;;;5.45;1.10;;;;;;;;;;5111938;28;20075;-67
2021/05/25 03:52:02;;;;;;;4.85;1.08;;;;;;;;;;5111488;28;20043;-67
2021/05/25 03:54:31;;;;;;;7.53;1.45;;;;;;;;;;5108326;28;20044;-67
2021/05/25 03:57:03;;;;;;;3.05;0.98;;;;;;;;;;5106078;28;20234;-67
2021/05/25 03:59:29;;;;;;;3.20;0.82;;;;;;;;;;5110334;28;20052;-67
2021/05/25 04:01:55;;;;;;;10.27;1.05;;;;;;;;;;5106967;28;20097;-67
2021/05/25 04:04:21;;;;;;;5.00;1.13;;;;;;;;;;5114683;28;20150;-68
2021/05/25 04:06:47;;;;;;;3.78;0.90;;;;;;;;;;5114076;28;20051;-67
2021/05/25 04:09:13;;;;;;;3.38;0.73;;;;;;;;;;5104249;28;20039;-68
2021/05/25 04:11:38;;;;;;;1.77;0.90;;;;;;;;;;5111342;28;21337;-68
2021/05/25 04:14:05;;;;;;;5.03;1.30;;;;;;;;;;5112994;28;20051;-68
2021/05/25 04:16:31;;;;;;;1.92;0.77;;;;;;;;;;5107975;28;20051;-68
2021/05/25 04:18:58;;;;;;;4.60;1.00;;;;;;;;;;5107890;28;20055;-68
2021/05/25 04:21:24;;;;;;;3.38;1.15;;;;;;;;;;5115302;28;20046;-68
2021/05/25 04:23:50;;;;;;;2.35;0.80;;;;;;;;;;5112253;28;20648;-68
2021/05/25 04:26:16;;;;;;;3.33;0.80;;;;;;;;;;5113059;28;20056;-67
2021/05/25 04:28:42;;;;;;;5.45;1.05;;;;;;;;;;5110456;28;20051;-68
2021/05/25 04:31:09;;;;;;;4.28;1.20;;;;;;;;;;5109137;28;20043;-68
2021/05/25 04:33:35;;;;;;;4.45;1.25;;;;;;;;;;5111106;28;20157;-68
2021/05/25 04:36:01;;;;;;;6.75;1.45;;;;;;;;;;5107012;28;20059;-67
2021/05/25 04:38:27;;;;;;;2.95;1.23;;;;;;;;;;5110122;28;20089;-67
2021/05/25 04:40:53;;;;;;;6.38;0.95;;;;;;;;;;5109164;28;20461;-67
2021/05/25 04:43:19;;;;;;;5.07;1.00;;;;;;;;;;5112284;28;20067;-68
2021/05/25 04:45:47;;;;;;;2.35;0.75;;;;;;;;;;5112672;28;20052;-68
2021/05/25 04:48:14;;;;;;;2.40;0.82;;;;;;;;;;5104007;27;20076;-67
2021/05/25 04:50:42;;;;;;;4.45;1.63;;;;;;;;;;5113430;28;20539;-67
2021/05/25 04:53:08;;;;;;;7.50;1.85;;;;;;;;;;5110795;28;20058;-68
2021/05/25 04:55:34;;;;;;;3.95;0.80;;;;;;;;;;5114554;28;20115;-67
2021/05/25 04:58:00;;;;;;;6.30;1.40;;;;;;;;;;5114579;28;20372;-68
2021/05/25 05:00:27;;;;;;;5.90;1.63;;;;;;;;;;5114740;28;20043;-68
2021/05/25 05:02:54;;;;;;;3.72;0.90;;;;;;;;;;5109980;28;20053;-68
2021/05/25 05:05:21;;;;;;;3.13;0.90;;;;;;;;;;5113283;28;20048;-68
2021/05/25 05:07:47;;;;;;;3.47;0.95;;;;;;;;;;5111851;28;20461;-68
2021/05/25 05:10:14;;;;;;;3.90;1.00;;;;;;;;;;5111589;28;20097;-68
2021/05/25 05:12:41;;;;;;;5.30;1.02;;;;;;;;;;5113534;28;20040;-68
2021/05/25 05:15:08;;;;;;;4.07;1.30;;;;;;;;;;5113793;28;20048;-68
2021/05/25 05:17:35;;;;;;;2.72;0.70;;;;;;;;;;5114337;28;20051;-68
2021/05/25 05:20:02;;;;;;;3.53;0.95;;;;;;;;;;5114194;28;20047;-68
2021/05/25 05:22:29;;;;;;;4.40;1.48;;;;;;;;;;5106931;28;20399;-68
2021/05/25 05:24:55;;;;;;;4.50;1.10;;;;;;;;;;5113203;28;20043;-68
2021/05/25 05:27:21;;;;;;;6.38;1.35;;;;;;;;;;5112684;28;20465;-68
2021/05/25 05:29:47;;;;;;;4.47;1.08;;;;;;;;;;5114003;28;20173;-68
2021/05/25 05:32:13;;;;;;;7.13;1.20;;;;;;;;;;5113279;28;20051;-68
2021/05/25 05:34:39;;;;;;;4.10;1.17;;;;;;;;;;5113708;28;20055;-68
2021/05/25 05:37:05;;;;;;;3.20;0.98;;;;;;;;;;5114252;28;20055;-68
2021/05/25 05:39:32;;;;;;;4.25;1.13;;;;;;;;;;5110040;28;20047;-68
2021/05/25 05:41:58;;;;;;;3.72;1.20;;;;;;;;;;5113898;28;20059;-67
2021/05/25 05:44:24;;;;;;;5.43;1.52;;;;;;;;;;5113539;28;20043;-67
2021/05/25 05:46:50;;;;;;;4.82;0.88;;;;;;;;;;5113650;28;20088;-68
2021/05/25 05:49:17;;;;;;;10.40;1.38;;;;;;;;;;5113529;28;20051;-67
2021/05/25 05:51:43;;;;;;;4.32;1.20;;;;;;;;;;5113962;28;20038;-68
2021/05/25 05:54:11;;;;;;;5.60;0.90;;;;;;;;;;5113416;28;20051;-67
2021/05/25 05:56:38;;;;;;;6.28;1.83;;;;;;;;;;5110030;28;20476;-67
2021/05/25 05:59:04;;;;;;;4.20;1.05;;;;;;;;;;5113660;28;20577;-67
2021/05/25 06:01:30;;;;;;;6.72;1.30;;;;;;;;;;5113935;28;20047;-68
2021/05/25 06:03:56;;;;;;;7.60;1.30;;;;;;;;;;5113732;28;20055;-67
2021/05/25 06:06:22;;;;;;;4.63;1.00;;;;;;;;;;5113396;28;20051;-68
2021/05/25 06:08:48;;;;;;;9.02;1.45;;;;;;;;;;5113580;28;20050;-67
2021/05/25 06:11:14;;;;;;;4.85;1.10;;;;;;;;;;5113485;28;20039;-67
2021/05/25 06:13:41;;;;;;;3.33;1.60;;;;;;;;;;5113674;28;20075;-67
2021/05/25 06:16:07;;;;;;;5.68;1.33;;;;;;;;;;5113679;28;20068;-68
2021/05/25 06:18:35;;;;;;;4.57;0.98;;;;;;;;;;5113818;28;20048;-67
2021/05/25 06:21:02;;;;;;;2.55;1.05;;;;;;;;;;5113677;28;20048;-67
2021/05/25 06:23:28;;;;;;;2.70;0.75;;;;;;;;;;5105033;28;20050;-67
2021/05/25 06:25:54;;;;;;;5.50;1.70;;;;;;;;;;5113323;28;20044;-67
2021/05/25 06:28:20;;;;;;;4.03;0.93;;;;;;;;;;5111732;28;20567;-67
2021/05/25 06:30:46;;;;;;;4.32;1.08;;;;;;;;;;5113383;28;20047;-67
2021/05/25 06:33:12;;;;;;;5.15;0.98;;;;;;;;;;5113823;28;20569;-67
2021/05/25 06:35:39;;;;;;;3.42;1.30;;;;;;;;;;5113264;28;20122;-67
2021/05/25 06:38:04;;;;;;;5.97;1.00;;;;;;;;;;5113739;28;20056;-67
2021/05/25 06:40:31;;;;;;;4.10;1.00;;;;;;;;;;5113428;28;20058;-67
2021/05/25 06:42:57;;;;;;;5.00;0.82;;;;;;;;;;5112820;28;20059;-66
2021/05/25 06:45:25;;;;;;;5.20;0.93;;;;;;;;;;5112664;28;20052;-67
2021/05/25 06:47:52;;;;;;;8.57;1.00;;;;;;;;;;5113899;28;20156;-67
2021/05/25 06:50:18;;;;;;;6.57;0.70;;;;;;;;;;5112960;28;20409;-67
2021/05/25 06:52:44;;;;;;;3.42;0.65;;;;;;;;;;5113967;28;20077;-67
2021/05/25 06:55:11;;;;;;;3.13;0.80;;;;;;;;;;5113148;28;20399;-67
2021/05/25 06:57:38;;;;;;;4.03;0.77;;;;;;;;;;5113589;28;20051;-67
2021/05/25 07:00:05;;;;;;;4.22;0.85;;;;;;;;;;5113010;28;20096;-67
2021/05/25 07:02:31;;;;;;;4.00;0.85;;;;;;;;;;5113316;28;20499;-67
2021/05/25 07:04:58;;;;;;;3.20;0.73;;;;;;;;;;5113376;28;20047;-67
2021/05/25 07:07:25;;;;;;;2.22;0.80;;;;;;;;;;5113192;28;20063;-67
2021/05/25 07:09:51;;;;;;;3.15;0.77;;;;;;;;;;5113305;28;20122;-67
2021/05/25 07:12:17;;;;;;;2.90;0.95;;;;;;;;;;5112919;28;20164;-67
2021/05/25 07:14:45;;;;;;;2.22;1.00;;;;;;;;;;5112729;28;20076;-67
2021/05/25 07:17:11;;;;;;;4.57;0.73;;;;;;;;;;5113437;28;20046;-67
2021/05/25 07:19:37;;;;;;;2.13;0.70;;;;;;;;;;5113009;28;20044;-67
2021/05/25 07:22:04;;;;;;;5.65;1.15;;;;;;;;;;5113228;28;20180;-67
2021/05/25 07:24:30;;;;;;;5.38;0.80;;;;;;;;;;5113152;28;20074;-67
2021/05/25 07:26:56;;;;;;;4.95;1.52;;;;;;;;;;5112937;28;20096;-67
2021/05/25 07:29:23;;;;;;;4.05;0.80;;;;;;;;;;5111487;28;20040;-67
2021/05/25 07:31:49;;;;;;;4.68;1.50;;;;;;;;;;5113371;28;20066;-67
2021/05/25 07:34:15;;;;;;;4.78;1.55;;;;;;;;;;5112953;28;20492;-67
2021/05/25 07:36:41;;;;;;;3.08;1.13;;;;;;;;;;5116679;28;20126;-67
2021/05/25 07:39:08;;;;;;;6.88;1.05;;;;;;;;;;5117364;28;20051;-67
2021/05/25 07:41:35;;;;;;;6.30;1.02;;;;;;;;;;5117701;28;20043;-67
2021/05/25 07:44:01;;;;;;;3.20;0.70;;;;;;;;;;5116711;28;20059;-67
2021/05/25 07:46:28;;;;;;;4.20;0.77;;;;;;;;;;5117811;28;20520;-66
2021/05/25 07:48:54;;;;;;;4.10;0.90;;;;;;;;;;5117716;28;20096;-67
2021/05/25 07:51:21;;;;;;;5.80;0.88;;;;;;;;;;5117304;28;20040;-67
2021/05/25 07:53:47;;;;;;;3.50;0.93;;;;;;;;;;5116801;28;20047;-67
2021/05/25 07:56:14;;;;;;;3.72;0.90;;;;;;;;;;5117196;28;20464;-67
2021/05/25 07:58:40;;;;;;;2.00;0.88;;;;;;;;;;5116987;28;20048;-67
2021/05/25 08:01:06;;;;;;;4.53;1.20;;;;;;;;;;5113132;28;20051;-67
2021/05/25 08:03:32;;;;;;;6.93;1.08;;;;;;;;;;5116828;28;20494;-67
2021/05/25 08:05:59;;;;;;;5.50;1.40;;;;;;;;;;5116518;28;20130;-67
2021/05/25 08:08:26;;;;;;;6.97;1.55;;;;;;;;;;5117071;28;20044;-67
2021/05/25 08:10:52;;;;;;;6.72;1.88;;;;;;;;;;5116500;28;20039;-67
2021/05/25 08:13:19;;;;;;;5.50;1.67;;;;;;;;;;5116494;28;20047;-67
2021/05/25 08:15:45;;;;;;;7.63;1.30;;;;;;;;;;5116473;28;20067;-66
2021/05/25 08:18:17;;;;;;;4.18;1.05;;;;;;;;;;5116581;28;20369;-67
2021/05/25 08:20:44;;;;;;;7.25;1.25;;;;;;;;;;5116410;28;20468;-67
2021/05/25 08:23:12;;;;;;;3.35;1.10;;;;;;;;;;5116122;28;20085;-67
2021/05/25 08:25:39;;;;;;;3.45;1.20;;;;;;;;;;5116250;28;20047;-67
2021/05/25 08:28:06;;;;;;;2.95;1.27;;;;;;;;;;5116426;28;20047;-67
2021/05/25 08:30:38;;;;;;;3.63;1.00;;;;;;;;;;5114697;28;20051;-67
2021/05/25 08:33:05;;;;;;;5.47;1.00;;;;;;;;;;5116131;28;20048;-67
2021/05/25 08:35:35;;;;;;;3.22;1.17;;;;;;;;;;5115436;28;20111;-67
2021/05/25 08:38:02;;;;;;;4.80;1.02;;;;;;;;;;5115947;27;20048;-67
2021/05/25 08:40:29;;;;;;;3.78;1.20;;;;;;;;;;5113274;28;20055;-67
2021/05/25 08:42:56;;;;;;;6.18;1.50;;;;;;;;;;5116071;28;20120;-67
2021/05/25 08:45:22;;;;;;;3.88;1.00;;;;;;;;;;5115641;28;20048;-67
2021/05/25 08:47:50;;;;;;;3.38;0.95;;;;;;;;;;5115924;28;20040;-67
2021/05/25 08:50:18;;;;;;;3.80;0.85;;;;;;;;;;5116286;28;20040;-67
2021/05/25 08:52:44;;;;;;;5.15;1.13;;;;;;;;;;5114835;28;20055;-67
2021/05/25 08:55:11;;;;;;;5.88;0.98;;;;;;;;;;5115228;28;20051;-67
2021/05/25 08:57:37;;;;;;;4.65;1.13;;;;;;;;;;5115983;28;20533;-66
2021/05/25 09:00:08;;;;;;;5.35;1.05;;;;;;;;;;5116179;28;20054;-67
2021/05/25 09:02:34;;;;;;;5.75;1.25;;;;;;;;;;5116405;28;20048;-67
2021/05/25 09:05:05;;;;;;;4.88;1.25;;;;;;;;;;5115365;28;20051;-67
2021/05/25 09:07:47;;;;;;;6.22;1.20;;;;;;;;;;5115912;28;20051;-66
2021/05/25 09:10:16;;;;;;;3.15;0.70;;;;;;;;;;5113575;28;20051;-67
2021/05/25 09:12:45;;;;;;;5.50;1.60;;;;;;;;;;5115653;28;20536;-64
2021/05/25 09:15:12;;;;;;;2.70;0.77;;;;;;;;;;5114916;28;20079;-67
2021/05/25 09:17:38;;;;;;;3.05;0.63;;;;;;;;;;5115597;28;20099;-67
2021/05/25 09:20:09;;;;;;;3.22;0.80;;;;;;;;;;5115151;28;20146;-67
2021/05/25 09:22:37;;;;;;;3.13;0.75;;;;;;;;;;5113567;28;20084;-66
2021/05/25 09:25:13;;;;;;;4.63;0.88;;;;;;;;;;5115337;28;20138;-67
2021/05/25 09:27:41;;;;;;;5.18;1.30;;;;;;;;;;5094950;27;20057;-67
2021/05/25 09:30:22;;;;;;;6.78;1.20;;;;;;;;;;5058070;28;20144;-67
2021/05/25 09:32:53;;;;;;;4.78;1.00;;;;;;;;;;5051727;28;20041;-67
2021/05/25 09:35:22;;;;;;;4.40;0.93;;;;;;;;;;5056288;28;20400;-67
2021/05/25 09:37:50;;;;;;;3.47;1.08;;;;;;;;;;5066327;28;20566;-66
2021/05/25 09:40:17;;;;;;;4.00;1.10;;;;;;;;;;5075963;28;20053;-67
2021/05/25 09:42:44;;;;;;;3.45;1.08;;;;;;;;;;5075744;28;20055;-67
2021/05/25 09:45:13;;;;;;;2.85;0.57;;;;;;;;;;5074167;28;20637;-67
2021/05/25 09:47:41;;;;;;;3.40;0.85;;;;;;;;;;5074697;28;20484;-66
2021/05/25 09:50:09;;;;;;;2.75;1.10;;;;;;;;;;5070898;28;20485;-65
2021/05/25 09:52:36;;;;;;;4.55;0.95;;;;;;;;;;5065748;28;20040;-67
2021/05/25 09:55:08;;;;;;;3.30;1.00;;;;;;;;;;5074233;28;20071;-66
2021/05/25 09:57:46;;;;;;;4.13;1.13;;;;;;;;;;5055156;28;20667;-66
2021/05/25 10:00:28;;;;;;;3.72;1.08;;;;;;;;;;5065623;28;20051;-66
2021/05/25 10:03:10;;;;;;;4.22;0.80;;;;;;;;;;5074344;28;20106;-66
2021/05/25 10:05:37;;;;;;;3.15;1.05;;;;;;;;;;5061295;28;20106;-65
2021/05/25 10:08:05;;;;;;;3.90;1.10;;;;;;;;;;5053485;28;20045;-66
2021/05/25 10:10:34;;;;;;;2.58;0.70;;;;;;;;;;5062088;28;20048;-66
2021/05/25 10:13:00;;;;;;;2.95;0.80;;;;;;;;;;5074764;28;20044;-66
2021/05/25 10:15:27;;;;;;;3.08;0.80;;;;;;;;;;5073622;28;20052;-66
2021/05/25 10:20:39;;;;;;;4.78;1.35;;;;;;;;;;5073648;28;20094;-66
2021/05/25 10:23:06;;;;;;;2.88;0.80;;;;;;;;;;5073679;28;20529;-67
2021/05/25 10:25:34;;;;;;;7.22;1.13;;;;;;;;;;5073685;28;20080;-66
2021/05/25 10:28:06;;;;;;;2.15;0.63;;;;;;;;;;5073085;28;20048;-67
2021/05/25 10:30:34;;;;;;;2.65;1.00;;;;;;;;;;5073428;28;20052;-66
2021/05/25 10:33:24;;;;;;;4.97;0.90;;;;;;;;;;5072352;28;20052;-65
2021/05/25 10:35:51;;;;;;;4.28;1.02;;;;;;;;;;5067978;28;20055;-66
2021/05/25 10:38:18;;;;;;;3.83;1.00;;;;;;;;;;5053413;28;20107;-66
2021/05/25 10:40:46;;;;;;;5.55;1.13;;;;;;;;;;5053182;28;20091;-66
2021/05/25 10:43:43;;;;;;;2.70;0.95;;;;;;;;;;5053664;28;20416;-66
2021/05/25 10:46:24;;;;;;;2.35;0.70;;;;;;;;;;5049100;28;20072;-65
2021/05/25 10:49:12;;;;;;;4.03;1.10;;;;;;;;;;5062904;28;20082;-66
2021/05/25 10:52:14;;;;;;;3.17;0.80;;;;;;;;;;5072920;28;20124;-66
2021/05/25 10:54:55;;;;;;;2.70;0.38;;;;;;;;;;5053628;28;20056;-66
2021/05/25 10:57:46;;;;;;;1.80;0.50;;;;;;;;;;5064100;28;20125;-66
2021/05/25 11:00:15;;;;;;;5.45;0.63;;;;;;;;;;5073083;28;20048;-66
2021/05/25 11:02:46;;;;;;;3.17;0.60;;;;;;;;;;5073161;28;20048;-66
2021/05/25 11:05:52;;;;;;;4.25;1.30;;;;;;;;;;5073494;28;20049;-66
2021/05/25 11:08:24;;;;;;;3.45;0.80;;;;;;;;;;5072241;28;20048;-66
2021/05/25 11:10:53;;;;;;;2.42;0.55;;;;;;;;;;5064121;28;20459;-66
2021/05/25 11:13:25;;;;;;;1.13;0.50;;;;;;;;;;5073393;28;20150;-66
2021/05/25 11:16:02;;;;;;;4.68;0.85;;;;;;;;;;5072910;28;20404;-66
2021/05/25 11:18:33;;;;;;;8.07;1.02;;;;;;;;;;5072782;28;20056;-66
2021/05/25 11:21:13;;;;;;;4.18;0.70;;;;;;;;;;5073022;28;20048;-66
2021/05/25 11:23:41;;;;;;;5.43;0.70;;;;;;;;;;5072503;28;20499;-66
2021/05/25 11:26:07;;;;;;;2.75;0.85;;;;;;;;;;5073249;28;20044;-66
2021/05/25 11:29:14;;;;;;;3.30;0.75;;;;;;;;;;5072853;28;20045;-66
2021/05/25 11:31:40;;;;;;;1.73;0.53;;;;;;;;;;5072348;28;20048;-66
2021/05/25 11:34:07;;;;;;;4.45;0.77;;;;;;;;;;5071462;28;20055;-66
2021/05/25 11:36:34;;;;;;;4.00;0.57;;;;;;;;;;5061940;28;20079;-65
2021/05/25 11:39:01;;;;;;;7.38;0.80;;;;;;;;;;5065591;28;20048;-65
2021/05/25 11:41:30;;;;;;;3.10;0.85;;;;;;;;;;5071025;28;20040;-66
2021/05/25 11:44:06;;;;;;;4.78;1.00;;;;;;;;;;5072019;28;20055;-65
2021/05/25 11:46:40;;;;;;;2.60;0.70;;;;;;;;;;5071511;28;20454;-65
2021/05/25 11:49:06;;;;;;;3.10;0.80;;;;;;;;;;5071746;28;20401;-65
2021/05/25 11:51:32;;;;;;;6.90;0.90;;;;;;;;;;5071905;28;20378;-65
2021/05/25 11:54:10;;;;;;;3.20;0.60;;;;;;;;;;5072213;28;20079;-65
2021/05/25 11:56:37;;;;;;;2.50;0.65;;;;;;;;;;5072672;28;20044;-65
2021/05/25 11:59:04;;;;;;;3.42;1.17;;;;;;;;;;5072816;28;20106;-65
2021/05/25 12:01:41;;;;;;;2.80;0.63;;;;;;;;;;5072745;28;20139;-65
2021/05/25 12:04:07;;;;;;;2.97;0.80;;;;;;;;;;5062639;28;20421;-65
2021/05/25 12:06:33;;;;;;;3.72;0.70;;;;;;;;;;5052801;28;20485;-65
2021/05/25 12:09:07;;;;;;;4.28;0.80;;;;;;;;;;5066087;28;20062;-65
2021/05/25 12:11:37;;;;;;;5.75;1.13;;;;;;;;;;5071929;28;20123;-65
2021/05/25 12:14:03;;;;;;;3.05;0.85;;;;;;;;;;5072352;28;20453;-65
2021/05/25 12:16:30;;;;;;;4.57;0.98;;;;;;;;;;5072778;28;20428;-65
2021/05/25 12:18:56;;;;;;;3.00;0.65;;;;;;;;;;5068936;28;20068;-66
2021/05/25 12:21:22;;;;;;;3.90;1.10;;;;;;;;;;5073128;28;20449;-65
2021/05/25 12:23:48;;;;;;;4.50;0.90;;;;;;;;;;5076181;28;20421;-65
2021/05/25 12:26:14;;;;;;;3.28;0.90;;;;;;;;;;5075016;28;20071;-65
2021/05/25 12:28:46;;;;;;;3.90;0.80;;;;;;;;;;5075637;28;20044;-65
2021/05/25 12:31:12;;;;;;;3.58;0.90;;;;;;;;;;5066851;28;20073;-65
2021/05/25 12:33:39;;;;;;;2.70;0.80;;;;;;;;;;5074738;28;20056;-65
2021/05/25 12:36:13;;;;;;;4.50;1.02;;;;;;;;;;5072801;28;20048;-67
2021/05/25 12:38:39;;;;;;;4.07;0.70;;;;;;;;;;5067707;28;20480;-65
2021/05/25 12:41:05;;;;;;;5.05;1.15;;;;;;;;;;5075115;28;20052;-65
2021/05/25 12:43:33;;;;;;;5.47;1.05;;;;;;;;;;5075401;28;20381;-65
2021/05/25 12:46:07;;;;;;;3.17;0.80;;;;;;;;;;5075850;28;20052;-65
2021/05/25 12:48:34;;;;;;;5.65;1.27;;;;;;;;;;5076189;28;20044;-65
2021/05/25 12:51:01;;;;;;;2.25;0.73;;;;;;;;;;5076902;28;20049;-65
2021/05/25 12:53:27;;;;;;;2.22;0.80;;;;;;;;;;5076416;28;20060;-66
2021/05/25 12:55:58;;;;;;;3.08;0.60;;;;;;;;;;5076416;28;20053;-66
2021/05/25 12:58:38;;;;;;;4.70;1.25;;;;;;;;;;5075382;28;20059;-65
2021/05/25 13:01:26;;;;;;;2.15;0.80;;;;;;;;;;5074838;28;20622;-65
2021/05/25 13:03:52;;;;;;;3.90;1.15;;;;;;;;;;5073966;28;20056;-66
2021/05/25 13:06:22;;;;;;;7.70;1.55;;;;;;;;;;5074452;28;20059;-65
2021/05/25 13:08:50;;;;;;;3.10;0.82;;;;;;;;;;5071465;28;20102;-68
2021/05/25 13:11:18;;;;;;;3.22;0.80;;;;;;;;;;5064135;28;20052;-65
2021/05/25 13:13:46;;;;;;;3.42;0.73;;;;;;;;;;5067383;28;20072;-68
2021/05/25 13:16:19;;;;;;;4.32;0.63;;;;;;;;;;5071407;28;20056;-67
2021/05/25 13:18:47;;;;;;;2.25;0.80;;;;;;;;;;5074748;28;20052;-67
2021/05/25 13:21:15;;;;;;;3.20;0.90;;;;;;;;;;5074182;28;20048;-67
2021/05/25 13:23:49;;;;;;;5.50;0.90;;;;;;;;;;5074708;28;20056;-66
2021/05/25 13:26:18;;;;;;;3.38;0.85;;;;;;;;;;5068637;28;20051;-68
2021/05/25 13:28:52;;;;;;;3.85;0.90;;;;;;;;;;5064033;28;20041;-67
2021/05/25 13:31:20;;;;;;;6.15;1.08;;;;;;;;;;5055307;28;20182;-68
2021/05/25 13:33:48;;;;;;;5.13;1.17;;;;;;;;;;5057362;28;20107;-67
2021/05/25 13:36:14;;;;;;;3.40;0.98;;;;;;;;;;5071610;28;20052;-68
2021/05/25 13:38:41;;;;;;;3.30;1.02;;;;;;;;;;5073208;28;20068;-66
2021/05/25 13:41:07;;;;;;;5.60;1.15;;;;;;;;;;5057974;28;20064;-66
2021/05/25 13:43:33;;;;;;;5.97;0.80;;;;;;;;;;5075635;28;20067;-66
2021/05/25 13:46:01;;;;;;;4.75;1.13;;;;;;;;;;5075850;28;20049;-66
2021/05/25 13:48:27;;;;;;;4.57;0.93;;;;;;;;;;5074556;28;20049;-69
2021/05/25 13:50:54;;;;;;;2.88;1.20;;;;;;;;;;5067346;28;20055;-69
2021/05/25 13:53:20;;;;;;;3.47;1.10;;;;;;;;;;5065998;28;20072;-66
2021/05/25 13:55:46;;;;;;;2.45;0.82;;;;;;;;;;5056835;28;20055;-66
2021/05/25 13:58:13;;;;;;;2.08;0.70;;;;;;;;;;5059476;28;20579;-67
2021/05/25 14:00:50;;;;;;;5.25;1.10;;;;;;;;;;5060444;28;20055;-66
2021/05/25 14:03:16;;;;;;;2.58;0.98;;;;;;;;;;5071143;28;20460;-67
2021/05/25 14:05:42;;;;;;;3.08;0.65;;;;;;;;;;5073468;28;20174;-67
2021/05/25 14:08:09;;;;;;;2.70;0.80;;;;;;;;;;5073485;28;20405;-66
2021/05/25 14:10:36;;;;;;;4.18;1.02;;;;;;;;;;5073452;28;20409;-67
2021/05/25 14:13:03;;;;;;;2.72;0.70;;;;;;;;;;5073207;28;20210;-66
2021/05/25 14:15:29;;;;;;;4.13;0.95;;;;;;;;;;5072898;28;20393;-66
2021/05/25 14:17:55;;;;;;;4.88;1.00;;;;;;;;;;5073149;28;20050;-66
2021/05/25 14:20:21;;;;;;;2.28;0.70;;;;;;;;;;5074023;28;20143;-67
2021/05/25 14:22:47;;;;;;;4.10;0.80;;;;;;;;;;5073813;28;20469;-67
2021/05/25 14:25:15;;;;;;;4.53;1.20;;;;;;;;;;5073920;28;20062;-67
2021/05/25 14:27:41;;;;;;;4.78;1.05;;;;;;;;;;5074375;28;20049;-67
2021/05/25 14:30:08;;;;;;;2.42;0.90;;;;;;;;;;5068456;28;20044;-67
2021/05/25 14:32:34;;;;;;;5.72;1.17;;;;;;;;;;5054213;28;20045;-66
2021/05/25 14:35:00;;;;;;;5.40;0.90;;;;;;;;;;5058067;28;20116;-67
2021/05/25 14:37:26;;;;;;;2.75;0.60;;;;;;;;;;5067241;28;20060;-67
2021/05/25 14:39:52;;;;;;;3.60;0.85;;;;;;;;;;5053737;28;20049;-69
2021/05/25 14:42:19;;;;;;;3.25;0.90;;;;;;;;;;5062697;28;20049;-67
2021/05/25 14:44:45;;;;;;;1.70;0.50;;;;;;;;;;5072600;28;20049;-68
2021/05/25 14:47:11;;;;;;;1.25;0.40;;;;;;;;;;5067617;28;20516;-68
2021/05/25 14:49:37;;;;;;;2.55;0.60;;;;;;;;;;5063562;28;20061;-68
2021/05/25 14:52:03;;;;;;;2.20;0.70;;;;;;;;;;5077697;28;20074;-67